sensor_id;sensor_type;location;lat;lon;timestamp;P1;durP1;ratioP1;P2;durP2;ratioP2
22064;SDS011;11197;53.110;8.468;2023-03-14T00:01:57;15.43;;;3.35;;
22064;SDS011;11197;53.110;8.468;2023-03-14T00:04:23;16.60;;;2.90;;
22064;SDS011;11197;53.110;8.468;2023-03-14T00:06:49;17.40;;;3.58;;
22064;SDS011;11197;53.110;8.468;2023-03-14T00:09:16;16.77;;;3.00;;
22064;SDS011;11197;53.110;8.468;2023-03-14T00:11:42;15.63;;;3.20;;
22064;SDS011;11197;53.110;8.468;2023-03-14T00:14:08;18.67;;;3.22;;
22064;SDS011;11197;53.110;8.468;2023-03-14T00:16:34;14.07;;;3.08;;
22064;SDS011;11197;53.110;8.468;2023-03-14T00:19:00;17.38;;;3.33;;
22064;SDS011;11197;53.110;8.468;2023-03-14T00:21:26;15.35;;;3.22;;
22064;SDS011;11197;53.110;8.468;2023-03-14T00:23:52;14.98;;;2.97;;
22064;SDS011;11197;53.110;8.468;2023-03-14T00:26:19;19.80;;;3.35;;
22064;SDS011;11197;53.110;8.468;2023-03-14T00:28:46;19.55;;;3.35;;
22064;SDS011;11197;53.110;8.468;2023-03-14T00:31:16;14.15;;;3.17;;
22064;SDS011;11197;53.110;8.468;2023-03-14T00:33:42;11.52;;;2.88;;
22064;SDS011;11197;53.110;8.468;2023-03-14T00:36:11;12.23;;;2.88;;
22064;SDS011;11197;53.110;8.468;2023-03-14T00:38:39;12.38;;;3.20;;
22064;SDS011;11197;53.110;8.468;2023-03-14T00:41:06;14.20;;;3.17;;
22064;SDS011;11197;53.110;8.468;2023-03-14T00:43:34;11.57;;;3.03;;
22064;SDS011;11197;53.110;8.468;2023-03-14T00:46:00;15.50;;;3.42;;
22064;SDS011;11197;53.110;8.468;2023-03-14T00:48:29;11.93;;;3.30;;
22064;SDS011;11197;53.110;8.468;2023-03-14T00:50:55;10.07;;;3.00;;
22064;SDS011;11197;53.110;8.468;2023-03-14T00:53:21;8.25;;;2.90;;
22064;SDS011;11197;53.110;8.468;2023-03-14T00:55:47;10.02;;;2.92;;
22064;SDS011;11197;53.110;8.468;2023-03-14T00:58:14;9.25;;;3.20;;
22064;SDS011;11197;53.110;8.468;2023-03-14T01:00:41;10.63;;;3.10;;
22064;SDS011;11197;53.110;8.468;2023-03-14T01:03:07;9.77;;;3.00;;
22064;SDS011;11197;53.110;8.468;2023-03-14T01:05:34;10.43;;;3.17;;
22064;SDS011;11197;53.110;8.468;2023-03-14T01:08:00;10.25;;;2.92;;
22064;SDS011;11197;53.110;8.468;2023-03-14T01:10:26;8.43;;;3.00;;
22064;SDS011;11197;53.110;8.468;2023-03-14T01:12:53;9.18;;;3.67;;
22064;SDS011;11197;53.110;8.468;2023-03-14T01:15:18;9.00;;;3.42;;
22064;SDS011;11197;53.110;8.468;2023-03-14T01:17:45;12.60;;;3.75;;
22064;SDS011;11197;53.110;8.468;2023-03-14T01:20:12;11.35;;;3.75;;
22064;SDS011;11197;53.110;8.468;2023-03-14T01:22:39;11.13;;;3.60;;
22064;SDS011;11197;53.110;8.468;2023-03-14T01:25:07;11.48;;;3.92;;
22064;SDS011;11197;53.110;8.468;2023-03-14T01:27:33;9.80;;;3.65;;
22064;SDS011;11197;53.110;8.468;2023-03-14T01:29:59;13.45;;;4.03;;
22064;SDS011;11197;53.110;8.468;2023-03-14T01:32:26;9.13;;;3.72;;
22064;SDS011;11197;53.110;8.468;2023-03-14T01:34:52;13.07;;;4.50;;
22064;SDS011;11197;53.110;8.468;2023-03-14T01:37:18;10.52;;;4.22;;
22064;SDS011;11197;53.110;8.468;2023-03-14T01:39:44;9.20;;;4.00;;
22064;SDS011;11197;53.110;8.468;2023-03-14T01:42:12;11.38;;;4.05;;
22064;SDS011;11197;53.110;8.468;2023-03-14T01:47:20;8.73;;;4.15;;
22064;SDS011;11197;53.110;8.468;2023-03-14T01:49:47;11.27;;;4.43;;
22064;SDS011;11197;53.110;8.468;2023-03-14T01:55:06;12.27;;;4.47;;
22064;SDS011;11197;53.110;8.468;2023-03-14T01:57:41;13.43;;;4.30;;
22064;SDS011;11197;53.110;8.468;2023-03-14T02:00:18;12.07;;;4.30;;
22064;SDS011;11197;53.110;8.468;2023-03-14T02:02:49;12.32;;;4.40;;
22064;SDS011;11197;53.110;8.468;2023-03-14T02:05:21;11.88;;;4.47;;
22064;SDS011;11197;53.110;8.468;2023-03-14T02:07:58;13.20;;;4.38;;
22064;SDS011;11197;53.110;8.468;2023-03-14T02:10:35;10.38;;;4.35;;
22064;SDS011;11197;53.110;8.468;2023-03-14T02:13:04;12.30;;;4.40;;
22064;SDS011;11197;53.110;8.468;2023-03-14T02:15:57;12.93;;;4.68;;
22064;SDS011;11197;53.110;8.468;2023-03-14T02:18:41;12.95;;;4.10;;
22064;SDS011;11197;53.110;8.468;2023-03-14T02:27:11;10.13;;;3.80;;
22064;SDS011;11197;53.110;8.468;2023-03-14T02:29:51;12.73;;;4.20;;
22064;SDS011;11197;53.110;8.468;2023-03-14T02:32:27;11.25;;;3.90;;
22064;SDS011;11197;53.110;8.468;2023-03-14T02:34:57;14.43;;;4.32;;
22064;SDS011;11197;53.110;8.468;2023-03-14T02:37:59;9.32;;;4.40;;
22064;SDS011;11197;53.110;8.468;2023-03-14T02:40:22;11.40;;;4.32;;
22064;SDS011;11197;53.110;8.468;2023-03-14T02:42:50;9.73;;;4.10;;
22064;SDS011;11197;53.110;8.468;2023-03-14T02:47:45;11.50;;;3.95;;
22064;SDS011;11197;53.110;8.468;2023-03-14T02:50:17;11.35;;;3.78;;
22064;SDS011;11197;53.110;8.468;2023-03-14T02:52:47;10.02;;;3.70;;
22064;SDS011;11197;53.110;8.468;2023-03-14T02:55:13;12.77;;;3.85;;
22064;SDS011;11197;53.110;8.468;2023-03-14T02:57:42;12.73;;;3.38;;
22064;SDS011;11197;53.110;8.468;2023-03-14T03:00:08;11.30;;;3.60;;
22064;SDS011;11197;53.110;8.468;2023-03-14T03:02:36;11.32;;;3.65;;
22064;SDS011;11197;53.110;8.468;2023-03-14T03:05:02;10.52;;;4.00;;
22064;SDS011;11197;53.110;8.468;2023-03-14T03:07:28;9.50;;;3.42;;
22064;SDS011;11197;53.110;8.468;2023-03-14T03:09:55;11.38;;;3.92;;
22064;SDS011;11197;53.110;8.468;2023-03-14T03:12:21;11.82;;;3.78;;
22064;SDS011;11197;53.110;8.468;2023-03-14T03:14:47;8.48;;;3.22;;
22064;SDS011;11197;53.110;8.468;2023-03-14T03:17:14;10.13;;;3.22;;
22064;SDS011;11197;53.110;8.468;2023-03-14T03:19:40;9.60;;;3.30;;
22064;SDS011;11197;53.110;8.468;2023-03-14T03:22:06;7.85;;;2.90;;
22064;SDS011;11197;53.110;8.468;2023-03-14T03:24:32;8.80;;;3.10;;
22064;SDS011;11197;53.110;8.468;2023-03-14T03:27:00;6.03;;;2.65;;
22064;SDS011;11197;53.110;8.468;2023-03-14T03:29:26;11.50;;;2.78;;
22064;SDS011;11197;53.110;8.468;2023-03-14T03:31:52;8.38;;;2.63;;
22064;SDS011;11197;53.110;8.468;2023-03-14T03:34:18;8.48;;;2.67;;
22064;SDS011;11197;53.110;8.468;2023-03-14T03:36:48;9.43;;;2.30;;
22064;SDS011;11197;53.110;8.468;2023-03-14T03:39:17;7.30;;;2.20;;
22064;SDS011;11197;53.110;8.468;2023-03-14T03:41:46;8.98;;;2.40;;
22064;SDS011;11197;53.110;8.468;2023-03-14T03:44:12;6.82;;;2.30;;
22064;SDS011;11197;53.110;8.468;2023-03-14T03:46:39;7.72;;;2.20;;
22064;SDS011;11197;53.110;8.468;2023-03-14T03:49:06;6.78;;;2.10;;
22064;SDS011;11197;53.110;8.468;2023-03-14T03:51:32;6.95;;;2.05;;
22064;SDS011;11197;53.110;8.468;2023-03-14T03:53:58;7.47;;;1.98;;
22064;SDS011;11197;53.110;8.468;2023-03-14T03:56:31;7.40;;;2.03;;
22064;SDS011;11197;53.110;8.468;2023-03-14T03:58:56;6.32;;;1.88;;
22064;SDS011;11197;53.110;8.468;2023-03-14T04:01:23;7.43;;;2.17;;
22064;SDS011;11197;53.110;8.468;2023-03-14T04:03:52;8.13;;;2.17;;
22064;SDS011;11197;53.110;8.468;2023-03-14T04:06:18;6.03;;;1.60;;
22064;SDS011;11197;53.110;8.468;2023-03-14T04:08:46;5.65;;;2.20;;
22064;SDS011;11197;53.110;8.468;2023-03-14T04:11:25;7.45;;;2.05;;
22064;SDS011;11197;53.110;8.468;2023-03-14T04:14:22;6.43;;;2.10;;
22064;SDS011;11197;53.110;8.468;2023-03-14T04:16:58;5.38;;;1.85;;
22064;SDS011;11197;53.110;8.468;2023-03-14T04:19:24;11.38;;;2.40;;
22064;SDS011;11197;53.110;8.468;2023-03-14T04:21:52;5.45;;;2.33;;
22064;SDS011;11197;53.110;8.468;2023-03-14T04:24:19;7.47;;;2.40;;
22064;SDS011;11197;53.110;8.468;2023-03-14T04:26:47;8.85;;;2.65;;
22064;SDS011;11197;53.110;8.468;2023-03-14T04:29:13;7.47;;;2.70;;
22064;SDS011;11197;53.110;8.468;2023-03-14T04:31:42;6.65;;;2.55;;
22064;SDS011;11197;53.110;8.468;2023-03-14T04:34:08;5.97;;;2.28;;
22064;SDS011;11197;53.110;8.468;2023-03-14T04:36:40;5.50;;;2.00;;
22064;SDS011;11197;53.110;8.468;2023-03-14T04:39:12;7.40;;;2.20;;
22064;SDS011;11197;53.110;8.468;2023-03-14T04:41:45;6.00;;;2.15;;
22064;SDS011;11197;53.110;8.468;2023-03-14T04:44:11;8.43;;;2.60;;
22064;SDS011;11197;53.110;8.468;2023-03-14T04:46:37;4.75;;;1.92;;
22064;SDS011;11197;53.110;8.468;2023-03-14T04:49:06;6.38;;;2.35;;
22064;SDS011;11197;53.110;8.468;2023-03-14T04:51:32;6.30;;;1.95;;
22064;SDS011;11197;53.110;8.468;2023-03-14T04:53:58;4.93;;;2.00;;
22064;SDS011;11197;53.110;8.468;2023-03-14T04:56:24;6.72;;;2.03;;
22064;SDS011;11197;53.110;8.468;2023-03-14T04:58:51;5.35;;;2.20;;
22064;SDS011;11197;53.110;8.468;2023-03-14T05:01:18;6.88;;;2.15;;
22064;SDS011;11197;53.110;8.468;2023-03-14T05:04:04;7.32;;;2.47;;
22064;SDS011;11197;53.110;8.468;2023-03-14T05:07:02;7.05;;;2.00;;
22064;SDS011;11197;53.110;8.468;2023-03-14T05:09:45;7.60;;;2.35;;
22064;SDS011;11197;53.110;8.468;2023-03-14T05:12:29;6.40;;;2.00;;
22064;SDS011;11197;53.110;8.468;2023-03-14T05:15:03;8.43;;;2.13;;
22064;SDS011;11197;53.110;8.468;2023-03-14T05:18:02;9.02;;;2.03;;
22064;SDS011;11197;53.110;8.468;2023-03-14T05:20:50;8.30;;;2.20;;
22064;SDS011;11197;53.110;8.468;2023-03-14T05:23:35;7.25;;;2.25;;
22064;SDS011;11197;53.110;8.468;2023-03-14T05:26:09;8.82;;;2.20;;
22064;SDS011;11197;53.110;8.468;2023-03-14T05:28:54;9.95;;;2.42;;
22064;SDS011;11197;53.110;8.468;2023-03-14T05:31:36;9.25;;;2.20;;
22064;SDS011;11197;53.110;8.468;2023-03-14T05:34:27;8.35;;;2.30;;
22064;SDS011;11197;53.110;8.468;2023-03-14T05:37:11;9.65;;;2.28;;
22064;SDS011;11197;53.110;8.468;2023-03-14T05:39:53;7.70;;;2.17;;
22064;SDS011;11197;53.110;8.468;2023-03-14T05:42:34;5.53;;;1.95;;
22064;SDS011;11197;53.110;8.468;2023-03-14T05:45:09;8.43;;;2.20;;
22064;SDS011;11197;53.110;8.468;2023-03-14T05:47:53;6.00;;;2.20;;
22064;SDS011;11197;53.110;8.468;2023-03-14T05:50:29;8.07;;;2.08;;
22064;SDS011;11197;53.110;8.468;2023-03-14T05:53:13;7.50;;;1.80;;
22064;SDS011;11197;53.110;8.468;2023-03-14T05:56:18;7.05;;;1.75;;
22064;SDS011;11197;53.110;8.468;2023-03-14T05:59:04;9.20;;;1.98;;
22064;SDS011;11197;53.110;8.468;2023-03-14T06:01:41;10.20;;;2.13;;
22064;SDS011;11197;53.110;8.468;2023-03-14T06:04:13;9.23;;;1.85;;
22064;SDS011;11197;53.110;8.468;2023-03-14T06:06:39;5.22;;;2.15;;
22064;SDS011;11197;53.110;8.468;2023-03-14T06:09:06;7.70;;;2.00;;
22064;SDS011;11197;53.110;8.468;2023-03-14T06:11:35;5.40;;;1.80;;
22064;SDS011;11197;53.110;8.468;2023-03-14T06:14:05;6.45;;;1.67;;
22064;SDS011;11197;53.110;8.468;2023-03-14T06:16:31;6.93;;;1.92;;
22064;SDS011;11197;53.110;8.468;2023-03-14T06:18:58;7.10;;;1.80;;
22064;SDS011;11197;53.110;8.468;2023-03-14T06:21:24;7.90;;;1.88;;
22064;SDS011;11197;53.110;8.468;2023-03-14T06:23:51;5.38;;;1.75;;
22064;SDS011;11197;53.110;8.468;2023-03-14T06:26:17;9.15;;;2.00;;
22064;SDS011;11197;53.110;8.468;2023-03-14T06:28:43;6.57;;;1.60;;
22064;SDS011;11197;53.110;8.468;2023-03-14T06:31:09;7.20;;;1.73;;
22064;SDS011;11197;53.110;8.468;2023-03-14T06:33:43;5.57;;;1.80;;
22064;SDS011;11197;53.110;8.468;2023-03-14T06:36:09;6.47;;;1.52;;
22064;SDS011;11197;53.110;8.468;2023-03-14T06:38:38;6.50;;;1.58;;
22064;SDS011;11197;53.110;8.468;2023-03-14T06:41:05;5.93;;;1.80;;
22064;SDS011;11197;53.110;8.468;2023-03-14T06:43:37;10.40;;;1.80;;
22064;SDS011;11197;53.110;8.468;2023-03-14T06:46:05;7.05;;;2.03;;
22064;SDS011;11197;53.110;8.468;2023-03-14T06:48:32;8.52;;;2.40;;
22064;SDS011;11197;53.110;8.468;2023-03-14T06:50:59;9.32;;;1.80;;
22064;SDS011;11197;53.110;8.468;2023-03-14T06:53:25;6.65;;;1.60;;
22064;SDS011;11197;53.110;8.468;2023-03-14T06:55:51;7.90;;;2.00;;
22064;SDS011;11197;53.110;8.468;2023-03-14T06:58:18;8.00;;;2.10;;
22064;SDS011;11197;53.110;8.468;2023-03-14T07:00:44;8.05;;;1.90;;
22064;SDS011;11197;53.110;8.468;2023-03-14T07:03:14;9.55;;;1.90;;
22064;SDS011;11197;53.110;8.468;2023-03-14T07:05:43;7.32;;;1.90;;
22064;SDS011;11197;53.110;8.468;2023-03-14T07:08:09;7.88;;;2.03;;
22064;SDS011;11197;53.110;8.468;2023-03-14T07:10:35;10.45;;;2.25;;
22064;SDS011;11197;53.110;8.468;2023-03-14T07:13:01;6.32;;;1.80;;
22064;SDS011;11197;53.110;8.468;2023-03-14T07:15:31;8.15;;;1.80;;
22064;SDS011;11197;53.110;8.468;2023-03-14T07:20:28;6.88;;;1.70;;
22064;SDS011;11197;53.110;8.468;2023-03-14T07:22:57;7.05;;;1.83;;
22064;SDS011;11197;53.110;8.468;2023-03-14T07:25:35;7.80;;;1.92;;
22064;SDS011;11197;53.110;8.468;2023-03-14T07:28:01;11.02;;;2.17;;
22064;SDS011;11197;53.110;8.468;2023-03-14T07:30:28;9.02;;;1.63;;
22064;SDS011;11197;53.110;8.468;2023-03-14T07:32:56;6.43;;;1.90;;
22064;SDS011;11197;53.110;8.468;2023-03-14T07:35:23;9.63;;;2.25;;
22064;SDS011;11197;53.110;8.468;2023-03-14T07:37:49;6.88;;;1.95;;
22064;SDS011;11197;53.110;8.468;2023-03-14T07:40:18;7.22;;;1.90;;
22064;SDS011;11197;53.110;8.468;2023-03-14T07:42:44;8.73;;;1.65;;
22064;SDS011;11197;53.110;8.468;2023-03-14T07:45:14;7.07;;;1.83;;
22064;SDS011;11197;53.110;8.468;2023-03-14T07:47:40;10.45;;;2.40;;
22064;SDS011;11197;53.110;8.468;2023-03-14T07:50:07;9.65;;;2.15;;
22064;SDS011;11197;53.110;8.468;2023-03-14T07:52:33;8.75;;;2.30;;
22064;SDS011;11197;53.110;8.468;2023-03-14T07:54:59;8.50;;;2.22;;
22064;SDS011;11197;53.110;8.468;2023-03-14T07:57:25;8.40;;;2.22;;
22064;SDS011;11197;53.110;8.468;2023-03-14T07:59:54;9.48;;;2.40;;
22064;SDS011;11197;53.110;8.468;2023-03-14T08:02:19;8.13;;;1.83;;
22064;SDS011;11197;53.110;8.468;2023-03-14T08:04:47;7.47;;;1.92;;
22064;SDS011;11197;53.110;8.468;2023-03-14T08:07:13;10.23;;;2.45;;
22064;SDS011;11197;53.110;8.468;2023-03-14T08:09:39;8.07;;;1.90;;
22064;SDS011;11197;53.110;8.468;2023-03-14T08:12:04;7.68;;;1.80;;
22064;SDS011;11197;53.110;8.468;2023-03-14T08:14:31;7.35;;;1.90;;
22064;SDS011;11197;53.110;8.468;2023-03-14T08:16:56;6.95;;;1.95;;
22064;SDS011;11197;53.110;8.468;2023-03-14T08:19:22;7.80;;;1.85;;
22064;SDS011;11197;53.110;8.468;2023-03-14T08:21:48;10.30;;;1.90;;
22064;SDS011;11197;53.110;8.468;2023-03-14T08:24:14;9.43;;;2.38;;
22064;SDS011;11197;53.110;8.468;2023-03-14T08:26:40;8.75;;;2.65;;
22064;SDS011;11197;53.110;8.468;2023-03-14T08:29:06;8.35;;;1.85;;
22064;SDS011;11197;53.110;8.468;2023-03-14T08:31:34;9.27;;;2.30;;
22064;SDS011;11197;53.110;8.468;2023-03-14T08:34:00;8.38;;;2.30;;
22064;SDS011;11197;53.110;8.468;2023-03-14T08:36:27;9.23;;;2.30;;
22064;SDS011;11197;53.110;8.468;2023-03-14T08:38:53;6.55;;;1.85;;
22064;SDS011;11197;53.110;8.468;2023-03-14T08:41:19;9.98;;;2.33;;
22064;SDS011;11197;53.110;8.468;2023-03-14T08:43:45;8.40;;;2.13;;
22064;SDS011;11197;53.110;8.468;2023-03-14T08:46:11;8.80;;;2.17;;
22064;SDS011;11197;53.110;8.468;2023-03-14T08:48:38;8.85;;;2.35;;
22064;SDS011;11197;53.110;8.468;2023-03-14T08:51:04;8.70;;;2.38;;
22064;SDS011;11197;53.110;8.468;2023-03-14T08:53:40;6.05;;;1.50;;
22064;SDS011;11197;53.110;8.468;2023-03-14T08:56:06;3.55;;;0.60;;
22064;SDS011;11197;53.110;8.468;2023-03-14T08:58:35;4.07;;;0.80;;
22064;SDS011;11197;53.110;8.468;2023-03-14T09:01:04;6.55;;;0.90;;
22064;SDS011;11197;53.110;8.468;2023-03-14T09:03:30;3.45;;;0.70;;
22064;SDS011;11197;53.110;8.468;2023-03-14T09:06:00;5.07;;;0.80;;
22064;SDS011;11197;53.110;8.468;2023-03-14T09:08:28;5.97;;;0.60;;
22064;SDS011;11197;53.110;8.468;2023-03-14T09:10:54;3.17;;;0.70;;
22064;SDS011;11197;53.110;8.468;2023-03-14T09:13:20;7.05;;;0.82;;
22064;SDS011;11197;53.110;8.468;2023-03-14T09:15:50;5.85;;;0.80;;
22064;SDS011;11197;53.110;8.468;2023-03-14T09:18:20;6.65;;;0.95;;
22064;SDS011;11197;53.110;8.468;2023-03-14T09:20:46;5.47;;;0.68;;
22064;SDS011;11197;53.110;8.468;2023-03-14T09:23:12;3.90;;;0.50;;
22064;SDS011;11197;53.110;8.468;2023-03-14T09:25:37;3.25;;;0.30;;
22064;SDS011;11197;53.110;8.468;2023-03-14T09:28:03;1.40;;;0.32;;
22064;SDS011;11197;53.110;8.468;2023-03-14T09:30:29;2.97;;;0.38;;
22064;SDS011;11197;53.110;8.468;2023-03-14T09:32:55;3.45;;;0.30;;
22064;SDS011;11197;53.110;8.468;2023-03-14T09:35:22;1.65;;;0.20;;
22064;SDS011;11197;53.110;8.468;2023-03-14T09:37:48;4.15;;;0.40;;
22064;SDS011;11197;53.110;8.468;2023-03-14T09:40:18;1.65;;;0.35;;
22064;SDS011;11197;53.110;8.468;2023-03-14T09:42:50;3.05;;;0.50;;
22064;SDS011;11197;53.110;8.468;2023-03-14T09:45:23;3.53;;;0.60;;
22064;SDS011;11197;53.110;8.468;2023-03-14T09:47:52;2.15;;;0.30;;
22064;SDS011;11197;53.110;8.468;2023-03-14T09:50:19;3.17;;;0.30;;
22064;SDS011;11197;53.110;8.468;2023-03-14T09:52:46;1.27;;;0.28;;
22064;SDS011;11197;53.110;8.468;2023-03-14T09:55:19;2.75;;;0.30;;
22064;SDS011;11197;53.110;8.468;2023-03-14T09:57:47;3.13;;;0.30;;
22064;SDS011;11197;53.110;8.468;2023-03-14T10:00:17;2.15;;;0.20;;
22064;SDS011;11197;53.110;8.468;2023-03-14T10:03:32;1.05;;;0.28;;
22064;SDS011;11197;53.110;8.468;2023-03-14T10:05:37;2.17;;;0.40;;
22064;SDS011;11197;53.110;8.468;2023-03-14T10:08:03;4.40;;;0.40;;
22064;SDS011;11197;53.110;8.468;2023-03-14T10:10:30;2.13;;;0.30;;
22064;SDS011;11197;53.110;8.468;2023-03-14T10:15:30;1.25;;;0.20;;
22064;SDS011;11197;53.110;8.468;2023-03-14T10:17:58;2.15;;;0.50;;
22064;SDS011;11197;53.110;8.468;2023-03-14T10:20:27;2.85;;;0.35;;
22064;SDS011;11197;53.110;8.468;2023-03-14T10:23:18;3.22;;;0.38;;
22064;SDS011;11197;53.110;8.468;2023-03-14T10:28:53;2.83;;;0.45;;
22064;SDS011;11197;53.110;8.468;2023-03-14T10:32:02;4.07;;;0.50;;
22064;SDS011;11197;53.110;8.468;2023-03-14T10:34:33;3.35;;;0.55;;
22064;SDS011;11197;53.110;8.468;2023-03-14T10:39:50;2.70;;;0.52;;
22064;SDS011;11197;53.110;8.468;2023-03-14T10:42:19;5.05;;;0.65;;
22064;SDS011;11197;53.110;8.468;2023-03-14T10:47:21;2.92;;;0.60;;
22064;SDS011;11197;53.110;8.468;2023-03-14T10:49:49;5.05;;;0.95;;
22064;SDS011;11197;53.110;8.468;2023-03-14T10:52:23;4.85;;;0.65;;
22064;SDS011;11197;53.110;8.468;2023-03-14T10:54:54;6.28;;;0.70;;
22064;SDS011;11197;53.110;8.468;2023-03-14T10:57:23;5.13;;;0.70;;
22064;SDS011;11197;53.110;8.468;2023-03-14T10:59:50;3.63;;;0.50;;
22064;SDS011;11197;53.110;8.468;2023-03-14T11:08:04;8.57;;;0.90;;
22064;SDS011;11197;53.110;8.468;2023-03-14T11:10:43;9.90;;;1.20;;
22064;SDS011;11197;53.110;8.468;2023-03-14T11:13:27;8.85;;;1.10;;
22064;SDS011;11197;53.110;8.468;2023-03-14T11:16:29;11.05;;;1.33;;
22064;SDS011;11197;53.110;8.468;2023-03-14T11:19:15;8.02;;;1.00;;
22064;SDS011;11197;53.110;8.468;2023-03-14T11:21:56;11.73;;;1.73;;
22064;SDS011;11197;53.110;8.468;2023-03-14T11:24:42;9.63;;;1.50;;
22064;SDS011;11197;53.110;8.468;2023-03-14T11:27:25;7.72;;;1.17;;
22064;SDS011;11197;53.110;8.468;2023-03-14T11:35:49;10.65;;;1.35;;
22064;SDS011;11197;53.110;8.468;2023-03-14T11:40:54;14.35;;;1.85;;
22064;SDS011;11197;53.110;8.468;2023-03-14T11:46:01;16.27;;;2.10;;
22064;SDS011;11197;53.110;8.468;2023-03-14T11:51:36;16.67;;;2.50;;
22064;SDS011;11197;53.110;8.468;2023-03-14T11:54:47;15.93;;;2.42;;
22064;SDS011;11197;53.110;8.468;2023-03-14T11:56:55;20.58;;;2.63;;
22064;SDS011;11197;53.110;8.468;2023-03-14T11:59:27;16.55;;;2.47;;
22064;SDS011;11197;53.110;8.468;2023-03-14T12:10:38;21.30;;;3.53;;
22064;SDS011;11197;53.110;8.468;2023-03-14T12:13:06;12.38;;;1.90;;
22064;SDS011;11197;53.110;8.468;2023-03-14T12:15:36;13.30;;;2.00;;
22064;SDS011;11197;53.110;8.468;2023-03-14T12:18:19;15.43;;;2.60;;
22064;SDS011;11197;53.110;8.468;2023-03-14T12:21:11;14.30;;;2.08;;
22064;SDS011;11197;53.110;8.468;2023-03-14T12:23:44;13.05;;;2.22;;
22064;SDS011;11197;53.110;8.468;2023-03-14T12:26:24;17.05;;;2.05;;
22064;SDS011;11197;53.110;8.468;2023-03-14T12:28:52;16.27;;;1.90;;
22064;SDS011;11197;53.110;8.468;2023-03-14T12:31:43;11.27;;;2.55;;
22064;SDS011;11197;53.110;8.468;2023-03-14T12:41:44;10.30;;;1.80;;
22064;SDS011;11197;53.110;8.468;2023-03-14T12:49:40;11.90;;;1.70;;
22064;SDS011;11197;53.110;8.468;2023-03-14T12:52:12;10.85;;;1.67;;
22064;SDS011;11197;53.110;8.468;2023-03-14T12:54:57;10.57;;;1.70;;
22064;SDS011;11197;53.110;8.468;2023-03-14T13:00:02;6.95;;;1.27;;
22064;SDS011;11197;53.110;8.468;2023-03-14T13:02:49;12.90;;;1.65;;
22064;SDS011;11197;53.110;8.468;2023-03-14T13:10:16;12.27;;;1.60;;
22064;SDS011;11197;53.110;8.468;2023-03-14T13:15:21;14.60;;;1.50;;
22064;SDS011;11197;53.110;8.468;2023-03-14T13:17:49;12.98;;;1.77;;
22064;SDS011;11197;53.110;8.468;2023-03-14T13:20:23;12.20;;;1.58;;
22064;SDS011;11197;53.110;8.468;2023-03-14T13:22:55;11.93;;;1.58;;
22064;SDS011;11197;53.110;8.468;2023-03-14T13:25:21;8.63;;;1.20;;
22064;SDS011;11197;53.110;8.468;2023-03-14T13:27:48;12.57;;;2.00;;
22064;SDS011;11197;53.110;8.468;2023-03-14T13:30:25;9.80;;;1.50;;
22064;SDS011;11197;53.110;8.468;2023-03-14T13:32:54;7.00;;;1.10;;
22064;SDS011;11197;53.110;8.468;2023-03-14T13:35:27;9.15;;;1.20;;
22064;SDS011;11197;53.110;8.468;2023-03-14T13:38:01;9.07;;;1.40;;
22064;SDS011;11197;53.110;8.468;2023-03-14T13:40:34;8.23;;;1.58;;
22064;SDS011;11197;53.110;8.468;2023-03-14T13:43:04;12.50;;;1.98;;
22064;SDS011;11197;53.110;8.468;2023-03-14T13:48:32;12.00;;;1.38;;
22064;SDS011;11197;53.110;8.468;2023-03-14T13:51:04;8.75;;;1.40;;
22064;SDS011;11197;53.110;8.468;2023-03-14T13:53:32;13.25;;;1.67;;
22064;SDS011;11197;53.110;8.468;2023-03-14T13:56:10;7.53;;;1.15;;
22064;SDS011;11197;53.110;8.468;2023-03-14T13:58:37;13.18;;;1.60;;
22064;SDS011;11197;53.110;8.468;2023-03-14T14:01:05;12.00;;;1.55;;
22064;SDS011;11197;53.110;8.468;2023-03-14T14:03:32;7.78;;;1.20;;
22064;SDS011;11197;53.110;8.468;2023-03-14T14:06:02;11.00;;;1.40;;
22064;SDS011;11197;53.110;8.468;2023-03-14T14:08:41;7.03;;;1.30;;
22064;SDS011;11197;53.110;8.468;2023-03-14T14:11:07;13.10;;;1.48;;
22064;SDS011;11197;53.110;8.468;2023-03-14T14:13:41;6.07;;;1.27;;
22064;SDS011;11197;53.110;8.468;2023-03-14T14:16:07;8.32;;;1.42;;
22064;SDS011;11197;53.110;8.468;2023-03-14T14:18:35;8.48;;;1.25;;
22064;SDS011;11197;53.110;8.468;2023-03-14T14:21:02;10.20;;;1.70;;
22064;SDS011;11197;53.110;8.468;2023-03-14T14:23:28;11.43;;;1.70;;
22064;SDS011;11197;53.110;8.468;2023-03-14T14:25:57;10.45;;;1.77;;
22064;SDS011;11197;53.110;8.468;2023-03-14T14:28:25;10.35;;;1.83;;
22064;SDS011;11197;53.110;8.468;2023-03-14T14:38:53;12.75;;;1.60;;
22064;SDS011;11197;53.110;8.468;2023-03-14T14:41:31;12.60;;;1.25;;
22064;SDS011;11197;53.110;8.468;2023-03-14T14:44:01;14.15;;;2.20;;
22064;SDS011;11197;53.110;8.468;2023-03-14T14:46:30;9.00;;;1.48;;
22064;SDS011;11197;53.110;8.468;2023-03-14T14:49:03;8.52;;;1.52;;
22064;SDS011;11197;53.110;8.468;2023-03-14T14:51:44;7.43;;;1.30;;
22064;SDS011;11197;53.110;8.468;2023-03-14T14:54:19;10.40;;;1.60;;
22064;SDS011;11197;53.110;8.468;2023-03-14T14:57:00;8.50;;;1.50;;
22064;SDS011;11197;53.110;8.468;2023-03-14T14:59:28;8.02;;;1.42;;
22064;SDS011;11197;53.110;8.468;2023-03-14T15:01:58;8.35;;;1.33;;
22064;SDS011;11197;53.110;8.468;2023-03-14T15:06:51;6.93;;;1.35;;
22064;SDS011;11197;53.110;8.468;2023-03-14T15:09:21;5.63;;;1.23;;
22064;SDS011;11197;53.110;8.468;2023-03-14T15:11:47;10.68;;;1.65;;
22064;SDS011;11197;53.110;8.468;2023-03-14T15:14:15;9.13;;;1.40;;
22064;SDS011;11197;53.110;8.468;2023-03-14T15:16:41;11.57;;;1.88;;
22064;SDS011;11197;53.110;8.468;2023-03-14T15:19:11;12.57;;;1.30;;
22064;SDS011;11197;53.110;8.468;2023-03-14T15:21:42;13.38;;;3.25;;
22064;SDS011;11197;53.110;8.468;2023-03-14T15:24:08;11.55;;;3.10;;
22064;SDS011;11197;53.110;8.468;2023-03-14T15:26:35;13.32;;;3.80;;
22064;SDS011;11197;53.110;8.468;2023-03-14T15:29:00;11.50;;;1.95;;
22064;SDS011;11197;53.110;8.468;2023-03-14T15:31:26;10.48;;;1.60;;
22064;SDS011;11197;53.110;8.468;2023-03-14T15:33:52;10.15;;;1.42;;
22064;SDS011;11197;53.110;8.468;2023-03-14T15:36:25;9.73;;;1.48;;
22064;SDS011;11197;53.110;8.468;2023-03-14T15:38:53;13.13;;;1.60;;
22064;SDS011;11197;53.110;8.468;2023-03-14T15:41:20;10.20;;;1.50;;
22064;SDS011;11197;53.110;8.468;2023-03-14T15:43:47;12.40;;;1.73;;
22064;SDS011;11197;53.110;8.468;2023-03-14T15:46:14;8.18;;;1.48;;
22064;SDS011;11197;53.110;8.468;2023-03-14T15:48:42;7.68;;;1.40;;
22064;SDS011;11197;53.110;8.468;2023-03-14T15:51:09;8.98;;;1.27;;
22064;SDS011;11197;53.110;8.468;2023-03-14T15:53:35;6.80;;;1.35;;
22064;SDS011;11197;53.110;8.468;2023-03-14T15:56:07;8.85;;;1.35;;
22064;SDS011;11197;53.110;8.468;2023-03-14T15:58:40;10.57;;;1.58;;
22064;SDS011;11197;53.110;8.468;2023-03-14T16:01:07;10.57;;;1.40;;
22064;SDS011;11197;53.110;8.468;2023-03-14T16:03:36;9.23;;;1.25;;
22064;SDS011;11197;53.110;8.468;2023-03-14T16:06:02;9.60;;;1.10;;
22064;SDS011;11197;53.110;8.468;2023-03-14T16:08:28;7.60;;;1.30;;
22064;SDS011;11197;53.110;8.468;2023-03-14T16:10:55;6.85;;;1.23;;
22064;SDS011;11197;53.110;8.468;2023-03-14T16:13:23;7.43;;;1.45;;
22064;SDS011;11197;53.110;8.468;2023-03-14T16:15:57;10.63;;;1.40;;
22064;SDS011;11197;53.110;8.468;2023-03-14T16:18:26;10.43;;;1.45;;
22064;SDS011;11197;53.110;8.468;2023-03-14T16:20:57;6.70;;;1.20;;
22064;SDS011;11197;53.110;8.468;2023-03-14T16:23:27;8.85;;;1.45;;
22064;SDS011;11197;53.110;8.468;2023-03-14T16:25:54;8.07;;;1.33;;
22064;SDS011;11197;53.110;8.468;2023-03-14T16:28:20;11.07;;;1.27;;
22064;SDS011;11197;53.110;8.468;2023-03-14T16:30:46;7.32;;;1.20;;
22064;SDS011;11197;53.110;8.468;2023-03-14T16:33:13;10.68;;;1.48;;
22064;SDS011;11197;53.110;8.468;2023-03-14T16:35:39;6.85;;;1.40;;